Time;durP1;ratioP1;P1;durP2;ratioP2;P2;SDS_P1;SDS_P2;PMS_P1;PMS_P2;Temp;Humidity;BMP_temperature;BMP_pressure;BME280_temperature;BME280_humidity;BME280_pressure;Samples;Min_cycle;Max_cycle;Signal;HPM_P1;HPM_P2
2021/07/04 00:00:59;;;;;;;3.90;2.25;;;;;;;22.32;57.80;100338.34;5051419;28;20033;-63
2021/07/04 00:03:24;;;;;;;3.53;2.42;;;;;;;22.32;58.11;100337.53;5050927;28;20091;-63
2021/07/04 00:05:50;;;;;;;4.18;2.40;;;;;;;22.32;57.80;100340.22;5046085;28;20483;-62
2021/07/04 00:08:18;;;;;;;3.70;2.30;;;;;;;22.32;57.95;100334.88;5050726;28;20484;-63
2021/07/04 00:10:52;;;;;;;4.00;2.53;;;;;;;22.31;57.95;100338.56;5051325;28;20025;-63
2021/07/04 00:13:18;;;;;;;3.95;2.50;;;;;;;22.32;57.75;100332.19;5050877;28;20029;-63
2021/07/04 00:15:44;;;;;;;4.82;2.00;;;;;;;22.32;57.78;100330.34;5051334;28;20053;-63
2021/07/04 00:18:13;;;;;;;3.10;2.20;;;;;;;22.32;57.70;100340.22;5050984;28;20067;-63
2021/07/04 00:20:39;;;;;;;3.45;1.98;;;;;;;22.32;57.95;100334.88;5051054;28;20025;-63
2021/07/04 00:23:05;;;;;;;4.63;2.50;;;;;;;22.32;58.09;100334.88;5050808;28;20033;-63
2021/07/04 00:25:31;;;;;;;4.13;2.00;;;;;;;22.32;57.87;100332.19;5045399;28;20021;-63
2021/07/04 00:27:57;;;;;;;3.47;2.10;;;;;;;22.30;57.67;100329.75;5050228;28;20043;-62
2021/07/04 00:30:23;;;;;;;3.03;1.98;;;;;;;22.30;58.04;100327.06;5051044;28;20530;-63
2021/07/04 00:32:49;;;;;;;2.80;1.92;;;;;;;22.31;57.81;100334.03;5050601;28;20049;-62
2021/07/04 00:35:16;;;;;;;3.40;2.10;;;;;;;22.31;57.60;100327.88;5050789;28;20032;-62
2021/07/04 00:37:43;;;;;;;3.90;2.03;;;;;;;22.31;57.70;100328.69;5037410;28;20034;-63
2021/07/04 00:40:09;;;;;;;3.53;2.25;;;;;;;22.31;57.60;100330.56;5050420;28;20088;-62
2021/07/04 00:42:37;;;;;;;3.10;2.03;;;;;;;22.31;57.70;100322.53;5049742;28;20106;-63
2021/07/04 00:45:09;;;;;;;5.20;2.25;;;;;;;22.30;57.74;100327.06;5050642;28;20048;-63
2021/07/04 00:47:35;;;;;;;3.30;2.28;;;;;;;22.31;57.87;100330.56;5032491;28;20431;-63
2021/07/04 00:50:00;;;;;;;3.08;1.98;;;;;;;22.30;57.65;100326.25;5063989;28;20036;-63
2021/07/04 00:52:26;;;;;;;4.22;2.10;;;;;;;22.29;57.58;100324.63;5050632;28;20090;-63
2021/07/04 00:54:52;;;;;;;3.30;1.90;;;;;;;22.30;57.75;100331.59;5064415;28;20036;-63
2021/07/04 00:57:17;;;;;;;3.47;1.83;;;;;;;22.29;57.58;100332.66;5049316;28;20495;-63
2021/07/04 00:59:43;;;;;;;3.03;1.92;;;;;;;22.29;58.03;100332.66;5037896;28;20501;-63
2021/07/04 01:02:08;;;;;;;2.63;1.80;;;;;;;22.28;57.59;100323.00;5048484;28;20150;-63
2021/07/04 01:04:34;;;;;;;2.75;1.73;;;;;;;22.29;57.57;100321.97;5048055;28;20047;-63
2021/07/04 01:06:59;;;;;;;2.75;1.77;;;;;;;22.28;57.44;100321.16;5046640;28;20044;-63
2021/07/04 01:09:25;;;;;;;2.67;1.60;;;;;;;22.28;57.86;100312.31;5050118;28;20037;-63
2021/07/04 01:11:50;;;;;;;5.38;2.10;;;;;;;22.27;57.50;100314.19;5048764;28;20032;-63
2021/07/04 01:14:17;;;;;;;2.45;1.55;;;;;;;22.28;57.40;100309.63;5050469;28;20029;-63
2021/07/04 01:16:44;;;;;;;2.85;1.73;;;;;;;22.27;57.86;100316.03;5049852;28;20037;-63
2021/07/04 01:19:13;;;;;;;2.60;1.80;;;;;;;22.27;57.80;100311.50;5049826;28;20036;-63
2021/07/04 01:21:41;;;;;;;2.65;2.03;;;;;;;22.26;57.30;100311.72;5049854;28;20086;-63
2021/07/04 01:24:07;;;;;;;2.58;1.77;;;;;;;22.27;57.49;100311.50;5049687;28;20041;-63
2021/07/04 01:26:33;;;;;;;3.03;1.60;;;;;;;22.27;57.58;100305.34;5048643;28;20040;-63
2021/07/04 01:28:59;;;;;;;2.10;1.60;;;;;;;22.27;57.61;100302.66;5049548;28;20043;-63
2021/07/04 01:31:24;;;;;;;2.55;1.60;;;;;;;22.27;57.68;100300.81;5049497;28;20071;-64
2021/07/04 01:33:50;;;;;;;2.10;1.40;;;;;;;22.27;57.52;100306.16;5049598;28;20037;-63
2021/07/04 01:36:16;;;;;;;2.15;1.48;;;;;;;22.27;57.42;100305.34;5047426;28;20040;-64
2021/07/04 01:38:42;;;;;;;2.10;1.50;;;;;;;22.27;57.64;100302.66;5036971;28;20044;-63
2021/07/04 01:41:07;;;;;;;2.20;1.50;;;;;;;22.26;57.50;100301.03;5035761;28;20405;-64
2021/07/04 01:43:33;;;;;;;3.60;1.65;;;;;;;22.27;57.45;100297.31;5048096;28;20033;-64
2021/07/04 01:45:58;;;;;;;2.80;1.58;;;;;;;22.27;57.19;100294.66;5049769;28;20432;-63
2021/07/04 01:48:24;;;;;;;3.35;1.50;;;;;;;22.26;57.22;100293.84;5049224;28;20025;-64
2021/07/04 01:50:50;;;;;;;1.67;1.40;;;;;;;22.26;57.48;100298.38;5049277;28;20037;-63
2021/07/04 01:53:18;;;;;;;1.60;1.25;;;;;;;22.28;57.33;100298.94;5034798;28;20041;-64
2021/07/04 01:55:44;;;;;;;2.63;1.55;;;;;;;22.27;57.15;100294.66;5049270;28;20043;-64
2021/07/04 01:58:10;;;;;;;2.38;1.48;;;;;;;22.26;57.53;100295.69;5030616;28;20399;-63
2021/07/04 02:00:36;;;;;;;2.25;1.45;;;;;;;22.28;57.27;100298.94;5048829;28;20047;-63
2021/07/04 02:03:04;;;;;;;3.28;1.67;;;;;;;22.26;56.99;100291.16;5037457;28;20037;-63
2021/07/04 02:05:30;;;;;;;2.60;1.35;;;;;;;22.26;57.34;100288.50;5041395;28;20037;-63
2021/07/04 02:07:56;;;;;;;1.90;1.35;;;;;;;22.26;57.30;100288.50;5048807;28;20049;-63
2021/07/04 02:10:25;;;;;;;2.08;1.40;;;;;;;22.26;57.21;100287.69;5049078;28;20039;-63
2021/07/04 02:12:50;;;;;;;1.92;1.33;;;;;;;22.26;57.11;100288.50;5047933;28;20036;-63
2021/07/04 02:15:20;;;;;;;1.77;1.30;;;;;;;22.26;57.29;100282.34;5031332;28;20037;-63
2021/07/04 02:17:46;;;;;;;1.90;1.40;;;;;;;22.26;57.24;100287.69;5048259;28;20301;-63
2021/07/04 02:20:25;;;;;;;1.77;1.40;;;;;;;22.23;57.00;100288.94;5044123;28;20123;-63
2021/07/04 02:22:50;;;;;;;2.65;1.52;;;;;;;22.24;57.08;100282.53;5041545;28;20064;-63
2021/07/04 02:25:16;;;;;;;1.52;1.20;;;;;;;22.25;56.95;100283.34;5049508;28;20493;-63
2021/07/04 02:27:41;;;;;;;2.08;1.30;;;;;;;22.24;57.06;100279.06;5046517;28;20535;-63
2021/07/04 02:30:07;;;;;;;2.13;1.30;;;;;;;22.25;57.33;100275.34;5048798;28;20528;-63
2021/07/04 02:32:32;;;;;;;2.45;1.27;;;;;;;22.24;56.97;100271.84;5048572;28;20469;-63
2021/07/04 02:34:58;;;;;;;2.15;1.40;;;;;;;22.25;57.18;100270.00;5048660;28;20391;-63
2021/07/04 02:37:23;;;;;;;1.92;1.30;;;;;;;22.24;57.36;100268.38;5019822;28;20033;-63
2021/07/04 02:39:49;;;;;;;1.63;1.05;;;;;;;22.23;56.83;100267.56;5042557;28;20461;-63
2021/07/04 02:42:14;;;;;;;1.98;1.27;;;;;;;22.24;57.20;100268.38;5036530;28;20429;-63
2021/07/04 02:44:40;;;;;;;2.45;1.20;;;;;;;22.23;57.05;100272.09;5048406;28;20047;-63
2021/07/04 02:47:05;;;;;;;2.17;1.23;;;;;;;22.24;57.20;100266.50;5048222;28;20350;-63
2021/07/04 02:49:31;;;;;;;1.98;1.20;;;;;;;22.24;56.79;100257.69;5036119;28;20037;-63
2021/07/04 02:51:56;;;;;;;3.25;1.20;;;;;;;22.25;57.21;100259.31;5046841;28;20362;-63
2021/07/04 02:54:22;;;;;;;2.10;1.38;;;;;;;22.22;57.08;100255.25;5038280;28;20044;-63
2021/07/04 02:56:47;;;;;;;1.63;1.15;;;;;;;22.24;57.04;100255.00;5043586;28;20110;-63
2021/07/04 02:59:12;;;;;;;1.77;1.20;;;;;;;22.24;57.21;100257.69;5048589;28;20037;-63
2021/07/04 03:01:38;;;;;;;1.63;1.00;;;;;;;22.23;56.80;100251.53;5047584;28;20033;-63
2021/07/04 03:04:03;;;;;;;2.45;1.20;;;;;;;22.22;56.66;100249.91;5042410;28;20033;-63
2021/07/04 03:06:29;;;;;;;1.20;0.93;;;;;;;22.23;57.16;100245.38;5044313;28;20039;-63
2021/07/04 03:08:54;;;;;;;1.60;1.35;;;;;;;22.23;56.77;100245.38;5057918;28;20115;-63
2021/07/04 03:11:20;;;;;;;2.42;1.50;;;;;;;22.22;56.78;100241.06;5051882;28;20041;-63
2021/07/04 03:13:45;;;;;;;1.55;1.20;;;;;;;22.22;56.59;100238.41;5051549;28;20059;-63
2021/07/04 03:16:11;;;;;;;1.98;1.38;;;;;;;22.22;56.76;100243.72;5052229;28;20392;-63
2021/07/04 03:18:36;;;;;;;1.80;1.30;;;;;;;22.21;56.89;100242.94;5052234;28;20387;-63
2021/07/04 03:21:02;;;;;;;2.30;1.50;;;;;;;22.21;57.32;100247.44;5052266;28;20037;-63
2021/07/04 03:23:27;;;;;;;1.92;1.38;;;;;;;22.21;56.73;100244.78;5052033;28;20029;-63
2021/07/04 03:25:54;;;;;;;2.10;1.50;;;;;;;22.21;56.65;100244.78;5051232;28;20041;-63
2021/07/04 03:28:20;;;;;;;2.38;1.65;;;;;;;22.21;56.79;100239.44;5049641;28;20068;-63
2021/07/04 03:30:45;;;;;;;2.35;1.50;;;;;;;22.19;56.71;100245.00;5052992;28;20033;-63
2021/07/04 03:33:11;;;;;;;1.85;1.40;;;;;;;22.20;56.79;100240.47;5051844;28;20044;-63
2021/07/04 03:35:36;;;;;;;2.03;1.35;;;;;;;22.19;56.52;100245.00;5052343;28;20433;-63
2021/07/04 03:38:02;;;;;;;3.10;1.80;;;;;;;22.19;56.95;100242.34;5047259;28;20379;-63
2021/07/04 03:40:27;;;;;;;3.00;2.00;;;;;;;22.19;56.95;100241.53;5021864;28;20408;-63
2021/07/04 03:42:53;;;;;;;2.70;1.77;;;;;;;22.18;56.46;100237.22;5049270;28;20036;-63
2021/07/04 03:45:18;;;;;;;3.13;1.95;;;;;;;22.17;56.90;100241.75;5062115;28;20083;-63
2021/07/04 03:47:44;;;;;;;3.33;1.90;;;;;;;22.17;56.65;100241.75;5038444;28;20037;-63
2021/07/04 03:50:11;;;;;;;4.72;2.03;;;;;;;22.18;56.55;100242.56;5056102;28;20033;-63
2021/07/04 03:52:36;;;;;;;2.78;1.90;;;;;;;22.18;56.65;100237.22;5045563;28;20566;-63
2021/07/04 03:55:03;;;;;;;2.83;1.92;;;;;;;22.19;56.64;100249.53;5041972;28;20061;-63
2021/07/04 03:57:31;;;;;;;3.25;2.15;;;;;;;22.17;56.49;100247.09;5042980;28;20496;-63
2021/07/04 03:59:59;;;;;;;2.83;1.80;;;;;;;22.17;56.77;100247.09;5037249;28;20111;-63
2021/07/04 04:02:24;;;;;;;4.00;2.10;;;;;;;22.16;56.68;100248.16;5062450;28;20043;-63
2021/07/04 04:04:54;;;;;;;3.90;2.10;;;;;;;22.16;56.85;100248.16;5052122;28;20045;-63
2021/07/04 04:07:20;;;;;;;3.58;2.33;;;;;;;22.18;56.40;100247.91;5051152;28;20052;-63
2021/07/04 04:09:48;;;;;;;4.53;2.40;;;;;;;22.17;56.60;100247.09;5050617;28;20484;-63
2021/07/04 04:12:13;;;;;;;2.70;2.03;;;;;;;22.17;56.89;100249.78;5050803;28;20037;-63
2021/07/04 04:14:39;;;;;;;3.97;2.35;;;;;;;22.17;56.47;100248.97;5050807;28;20045;-63
2021/07/04 04:17:05;;;;;;;3.40;2.35;;;;;;;22.17;56.38;100257.78;5032673;28;20051;-63
2021/07/04 04:19:30;;;;;;;3.60;2.35;;;;;;;22.16;56.83;100256.16;5051171;28;20037;-63
2021/07/04 04:21:56;;;;;;;3.55;2.33;;;;;;;22.17;56.82;100260.47;5050528;28;20052;-63
2021/07/04 04:24:21;;;;;;;3.58;2.15;;;;;;;22.16;56.51;100253.50;5051294;28;20116;-63
2021/07/04 04:26:47;;;;;;;5.20;2.42;;;;;;;22.16;56.77;100247.34;5062232;28;20102;-63
2021/07/04 04:29:12;;;;;;;4.07;2.33;;;;;;;22.16;56.82;100250.00;5069240;28;20551;-63
2021/07/04 04:31:38;;;;;;;4.82;2.90;;;;;;;22.15;56.94;100249.19;5067153;28;20116;-63
2021/07/04 04:34:03;;;;;;;4.32;2.67;;;;;;;22.15;56.75;100256.38;5064419;28;20025;-63
2021/07/04 04:36:29;;;;;;;4.85;2.30;;;;;;;22.16;56.44;100250.00;5050874;28;20052;-63
2021/07/04 04:38:54;;;;;;;4.20;2.40;;;;;;;22.15;56.64;100248.38;5050182;28;20035;-63
2021/07/04 04:41:20;;;;;;;4.45;2.10;;;;;;;22.16;56.46;100255.34;5050727;28;20056;-63
2021/07/04 04:43:46;;;;;;;4.60;2.40;;;;;;;22.14;56.57;100258.25;5050471;28;20039;-63
2021/07/04 04:46:12;;;;;;;4.25;2.50;;;;;;;22.15;56.63;100249.19;5050717;28;20052;-63
2021/07/04 04:48:38;;;;;;;3.60;2.50;;;;;;;22.15;56.53;100251.84;5050630;28;20040;-63
2021/07/04 04:51:03;;;;;;;4.10;2.17;;;;;;;22.15;56.72;100253.72;5046608;28;20037;-63
2021/07/04 04:53:29;;;;;;;3.30;2.40;;;;;;;22.16;56.99;100260.69;5040668;28;20037;-63
2021/07/04 04:55:54;;;;;;;3.83;2.90;;;;;;;22.16;56.56;100255.34;5049999;28;20732;-63
2021/07/04 04:58:19;;;;;;;4.47;2.63;;;;;;;22.16;56.70;100266.03;5049643;28;20063;-63
2021/07/04 05:00:45;;;;;;;3.90;2.78;;;;;;;22.15;57.00;100259.88;5050208;28;20052;-63
2021/07/04 05:03:11;;;;;;;3.58;2.58;;;;;;;22.15;56.62;100259.88;5044587;28;20104;-63
2021/07/04 05:05:36;;;;;;;4.18;2.53;;;;;;;22.15;56.64;100254.53;5030937;28;20037;-63
2021/07/04 05:08:02;;;;;;;6.07;3.05;;;;;;;22.16;56.58;100250.00;5048256;28;20060;-63
2021/07/04 05:10:28;;;;;;;4.78;2.33;;;;;;;22.16;56.59;100260.69;5050685;28;20138;-63
2021/07/04 05:12:54;;;;;;;5.18;2.67;;;;;;;22.15;56.68;100246.50;5031920;28;20544;-63
2021/07/04 05:15:19;;;;;;;3.75;2.63;;;;;;;22.14;56.73;100255.56;5051274;28;20032;-63
2021/07/04 05:17:45;;;;;;;5.13;2.47;;;;;;;22.16;56.85;100255.34;5050684;28;20045;-63
2021/07/04 05:20:11;;;;;;;4.13;2.33;;;;;;;22.16;56.60;100250.00;5049889;28;20028;-63
2021/07/04 05:22:37;;;;;;;3.00;2.13;;;;;;;22.16;56.62;100266.03;5050318;28;20045;-63
2021/07/04 05:25:04;;;;;;;5.88;3.10;;;;;;;22.16;56.66;100261.50;5053143;28;20035;-63
2021/07/04 05:27:30;;;;;;;3.95;2.50;;;;;;;22.16;56.52;100264.16;5059378;28;20032;-63
2021/07/04 05:29:55;;;;;;;3.55;2.20;;;;;;;22.15;56.68;100254.53;5050913;28;20033;-63
2021/07/04 05:32:21;;;;;;;4.13;2.53;;;;;;;22.14;56.62;100250.22;5050255;28;20487;-63
2021/07/04 05:34:46;;;;;;;3.20;2.33;;;;;;;22.15;56.91;100254.53;5031856;28;20045;-63
2021/07/04 05:37:12;;;;;;;4.13;2.65;;;;;;;22.15;56.57;100264.41;5048895;28;20047;-63
2021/07/04 05:39:38;;;;;;;3.92;2.30;;;;;;;22.15;56.99;100259.88;5050160;28;20103;-63
2021/07/04 05:42:04;;;;;;;4.80;2.67;;;;;;;22.14;56.69;100258.25;5062228;28;20091;-63
2021/07/04 05:44:29;;;;;;;5.53;2.75;;;;;;;22.15;56.78;100257.19;5035451;28;20029;-63
2021/07/04 05:46:55;;;;;;;4.50;2.70;;;;;;;22.15;56.80;100249.19;5049278;28;20052;-63
2021/07/04 05:49:21;;;;;;;4.10;2.30;;;;;;;22.14;57.02;100247.56;5049580;28;20056;-63
2021/07/04 05:51:46;;;;;;;3.55;2.38;;;;;;;22.14;56.69;100252.91;5049467;28;20047;-63
2021/07/04 05:54:12;;;;;;;3.33;2.60;;;;;;;22.15;56.65;100248.38;5049050;28;20064;-63
2021/07/04 05:56:38;;;;;;;6.15;2.85;;;;;;;22.15;57.11;100253.72;5048433;28;20500;-63
2021/07/04 05:59:04;;;;;;;3.20;2.25;;;;;;;22.14;57.06;100244.88;5049314;28;20516;-63
2021/07/04 06:01:30;;;;;;;4.40;2.28;;;;;;;22.15;56.98;100254.53;5048682;28;20112;-63
2021/07/04 06:03:55;;;;;;;4.18;2.53;;;;;;;22.15;56.87;100251.03;5037446;28;20116;-63
2021/07/04 06:06:21;;;;;;;4.80;2.60;;;;;;;22.14;57.07;100257.44;5033103;28;20388;-63
2021/07/04 06:08:46;;;;;;;3.58;2.28;;;;;;;22.16;56.92;100250.00;5031817;28;20443;-63
2021/07/04 06:11:11;;;;;;;3.42;2.03;;;;;;;22.15;56.84;100241.19;5049042;28;20035;-63
2021/07/04 06:13:37;;;;;;;3.28;2.33;;;;;;;22.15;56.99;100245.69;5049495;28;20036;-63
2021/07/04 06:16:02;;;;;;;4.00;2.38;;;;;;;22.14;57.10;100244.88;5049758;28;20055;-63
2021/07/04 06:18:29;;;;;;;3.58;2.28;;;;;;;22.15;56.94;100233.16;5049570;28;20033;-63
2021/07/04 06:20:54;;;;;;;3.03;2.25;;;;;;;22.16;56.75;100239.31;5049657;28;20064;-63
2021/07/04 06:23:20;;;;;;;4.97;2.58;;;;;;;22.15;56.85;100227.81;5046973;28;20108;-63
2021/07/04 06:25:46;;;;;;;2.90;2.00;;;;;;;22.15;56.68;100237.69;5039526;28;20044;-63
2021/07/04 06:28:11;;;;;;;3.88;2.13;;;;;;;22.15;56.80;100230.50;5050559;28;20040;-63
2021/07/04 06:30:37;;;;;;;3.58;2.50;;;;;;;22.15;56.64;100233.16;5054430;28;20033;-63
2021/07/04 06:33:03;;;;;;;3.55;2.50;;;;;;;22.15;57.03;100230.50;5030498;28;20307;-63
2021/07/04 06:35:28;;;;;;;3.30;2.58;;;;;;;22.15;57.10;100232.34;5049411;28;20096;-63
2021/07/04 06:37:53;;;;;;;2.50;1.95;;;;;;;22.15;57.25;100233.16;5048491;28;20158;-63
2021/07/04 06:40:19;;;;;;;3.83;2.22;;;;;;;22.16;56.76;100225.97;5061781;28;20108;-63
2021/07/04 06:42:45;;;;;;;3.38;2.10;;;;;;;22.15;57.14;100232.34;5034544;28;20029;-63
2021/07/04 06:45:11;;;;;;;5.03;2.42;;;;;;;22.14;56.93;100223.50;5049001;28;20045;-63
2021/07/04 06:47:41;;;;;;;3.38;2.22;;;;;;;22.15;57.15;100232.34;5034369;28;20068;-63
2021/07/04 06:50:08;;;;;;;3.78;2.38;;;;;;;22.16;56.84;100223.28;5048829;28;20458;-63
2021/07/04 06:52:34;;;;;;;3.67;2.05;;;;;;;22.16;56.94;100220.63;5048549;28;20052;-63
2021/07/04 06:55:00;;;;;;;4.40;2.38;;;;;;;22.16;57.00;100221.44;5048386;28;20049;-63
2021/07/04 06:57:26;;;;;;;3.72;2.40;;;;;;;22.16;56.79;100225.97;5047594;28;20116;-63
2021/07/04 06:59:52;;;;;;;4.20;2.47;;;;;;;22.17;57.02;100224.91;5030818;28;20759;-63
2021/07/04 07:02:17;;;;;;;3.35;1.98;;;;;;;22.15;57.23;100217.13;5048707;28;20115;-63
2021/07/04 07:04:43;;;;;;;3.47;2.28;;;;;;;22.16;57.05;100218.75;5044160;28;20351;-64
2021/07/04 07:07:08;;;;;;;4.13;2.00;;;;;;;22.15;57.28;100222.47;5048311;28;20364;-64
2021/07/04 07:09:34;;;;;;;4.10;2.17;;;;;;;22.16;56.90;100223.28;5053147;28;20032;-64
2021/07/04 07:11:59;;;;;;;3.90;1.92;;;;;;;22.15;56.91;100222.47;5048283;28;20061;-63
2021/07/04 07:14:25;;;;;;;3.90;2.33;;;;;;;22.15;56.87;100222.47;5048945;28;20041;-63
2021/07/04 07:16:51;;;;;;;3.45;2.30;;;;;;;22.17;57.07;100216.91;5048253;28;20083;-64
2021/07/04 07:19:17;;;;;;;3.35;2.35;;;;;;;22.16;57.15;100224.09;5049081;28;20404;-64
2021/07/04 07:21:42;;;;;;;3.63;2.25;;;;;;;22.15;56.91;100219.81;5048612;28;20025;-64
2021/07/04 07:24:09;;;;;;;3.80;2.35;;;;;;;22.17;56.89;100224.91;5048997;28;20040;-63
2021/07/04 07:26:35;;;;;;;3.28;2.50;;;;;;;22.17;56.80;100228.41;5047542;28;20472;-64
2021/07/04 07:29:01;;;;;;;4.60;2.20;;;;;;;22.17;57.22;100230.25;5049445;28;20037;-64
2021/07/04 07:31:26;;;;;;;3.83;2.20;;;;;;;22.17;56.94;100224.91;5048716;28;20041;-64
2021/07/04 07:33:52;;;;;;;3.72;2.35;;;;;;;22.17;56.84;100230.25;5048575;28;20144;-64
2021/07/04 07:36:17;;;;;;;3.40;2.25;;;;;;;22.17;56.85;100230.25;5057166;28;20036;-64
2021/07/04 07:38:43;;;;;;;4.45;2.40;;;;;;;22.18;57.06;100221.19;5053150;28;20059;-64
2021/07/04 07:41:08;;;;;;;3.78;2.30;;;;;;;22.17;56.92;100222.25;5047835;28;20032;-64
2021/07/04 07:43:33;;;;;;;4.43;2.38;;;;;;;22.17;56.82;100214.22;5048490;28;20055;-64
2021/07/04 07:45:59;;;;;;;2.90;1.98;;;;;;;22.16;56.71;100216.09;5029750;28;20691;-63
2021/07/04 07:48:24;;;;;;;3.13;2.22;;;;;;;22.16;56.84;100213.41;5048225;28;20087;-64
2021/07/04 07:50:50;;;;;;;4.70;2.58;;;;;;;22.16;57.16;100216.09;5048000;28;20095;-63
2021/07/04 07:53:15;;;;;;;4.20;2.20;;;;;;;22.18;56.99;100221.19;5030819;28;20068;-63
2021/07/04 07:55:41;;;;;;;3.83;2.28;;;;;;;22.18;57.29;100213.19;5032127;28;20033;-63
2021/07/04 07:58:07;;;;;;;4.07;2.20;;;;;;;22.19;57.28;100218.28;5037883;28;20056;-64
2021/07/04 08:00:32;;;;;;;3.53;2.10;;;;;;;22.19;57.55;100220.97;5048403;28;20064;-64
2021/07/04 08:02:58;;;;;;;5.50;2.20;;;;;;;22.20;57.92;100221.78;5047532;28;20051;-63
2021/07/04 08:05:24;;;;;;;6.95;2.17;;;;;;;22.20;58.38;100214.56;5048524;28;20084;-63
2021/07/04 08:07:49;;;;;;;4.43;2.38;;;;;;;22.22;58.56;100211.69;5029260;28;20473;-64
2021/07/04 08:10:15;;;;;;;4.18;2.50;;;;;;;22.22;58.17;100219.69;5033033;28;20408;-63
2021/07/04 08:12:42;;;;;;;5.38;2.33;;;;;;;22.22;58.17;100211.69;5051111;28;20481;-63
2021/07/04 08:15:08;;;;;;;4.75;2.45;;;;;;;22.23;58.38;100210.63;5059090;28;20045;-63
2021/07/04 08:17:34;;;;;;;4.18;2.08;;;;;;;22.23;58.27;100210.63;5065276;28;20082;-63
2021/07/04 08:19:59;;;;;;;6.43;2.50;;;;;;;22.24;58.36;100205.06;5065651;28;20044;-63
2021/07/04 08:22:25;;;;;;;3.47;2.03;;;;;;;22.25;58.67;100212.06;5067479;28;20098;-63
2021/07/04 08:24:50;;;;;;;4.47;2.10;;;;;;;22.25;58.73;100203.19;5045634;28;20403;-63
2021/07/04 08:27:16;;;;;;;4.10;2.15;;;;;;;22.26;58.57;100202.19;5051161;28;20120;-65
2021/07/04 08:29:41;;;;;;;5.30;2.30;;;;;;;22.25;58.45;100208.53;5045584;28;20461;-66
2021/07/04 08:32:07;;;;;;;5.22;2.08;;;;;;;22.24;58.43;100209.59;5031609;28;20048;-66
2021/07/04 08:34:33;;;;;;;6.63;2.00;;;;;;;22.23;57.81;100207.97;5048953;28;20039;-66
2021/07/04 08:36:58;;;;;;;4.65;2.25;;;;;;;22.21;58.04;100215.41;5038727;28;20029;-66
2021/07/04 08:39:24;;;;;;;4.22;2.35;;;;;;;22.19;57.45;100201.44;5032156;28;20056;-65
2021/07/04 08:41:49;;;;;;;3.95;2.08;;;;;;;22.19;57.35;100204.94;5043039;28;20039;-65
2021/07/04 08:44:15;;;;;;;5.90;2.50;;;;;;;22.18;57.24;100202.50;5054512;28;20044;-65
2021/07/04 08:46:42;;;;;;;6.28;2.30;;;;;;;22.18;57.62;100199.81;5069688;28;20464;-65
2021/07/04 08:49:09;;;;;;;5.20;2.38;;;;;;;22.18;57.37;100202.50;5068096;28;20037;-66
2021/07/04 08:51:34;;;;;;;5.13;2.20;;;;;;;22.18;57.42;100205.16;5051406;28;20115;-65
2021/07/04 08:54:00;;;;;;;6.13;2.00;;;;;;;22.17;57.29;100199.00;5054754;28;20144;-65
2021/07/04 08:56:25;;;;;;;7.03;2.42;;;;;;;22.16;57.74;100197.38;5058580;28;20119;-65
2021/07/04 08:58:51;;;;;;;4.85;2.13;;;;;;;22.17;57.90;100196.34;5032017;28;20028;-65
2021/07/04 09:01:20;;;;;;;6.65;2.65;;;;;;;22.18;57.29;100191.81;5053912;28;20032;-67
2021/07/04 09:03:50;;;;;;;5.32;2.55;;;;;;;22.18;57.33;100186.47;5053673;28;20041;-66
2021/07/04 09:06:36;;;;;;;7.88;2.20;;;;;;;22.14;57.54;100188.78;5034521;28;20032;-65
2021/07/04 09:09:18;;;;;;;9.95;2.50;;;;;;;22.14;57.44;100187.97;5051284;28;20445;-66
2021/07/04 09:11:52;;;;;;;5.68;2.63;;;;;;;22.14;57.59;100180.78;5030704;28;20479;-67
2021/07/04 09:14:25;;;;;;;8.35;2.92;;;;;;;22.15;57.49;100187.75;5038167;28;20112;-65
2021/07/04 09:16:51;;;;;;;10.57;3.53;;;;;;;22.16;57.48;100184.03;5016101;28;20475;-67
2021/07/04 09:19:16;;;;;;;11.98;3.55;;;;;;;22.17;57.89;100179.50;5044446;28;20040;-66
2021/07/04 09:21:42;;;;;;;7.55;2.75;;;;;;;22.19;57.63;100188.09;5049464;28;20476;-66
2021/07/04 09:24:28;;;;;;;15.30;4.07;;;;;;;22.16;57.72;100177.88;5044971;28;20038;-65
2021/07/04 09:26:54;;;;;;;12.60;3.10;;;;;;;22.19;57.71;100180.91;5054180;28;20032;-67
2021/07/04 09:29:40;;;;;;;9.82;3.53;;;;;;;22.16;58.00;100186.69;5051995;28;20021;-67
2021/07/04 09:32:09;;;;;;;11.73;3.78;;;;;;;22.19;57.94;100180.09;5055640;28;20143;-66
2021/07/04 09:34:35;;;;;;;22.52;5.55;;;;;;;22.19;57.88;100178.22;5063817;28;20181;-66
2021/07/04 09:37:00;;;;;;;19.42;6.53;;;;;;;22.21;57.88;100178.00;5035533;28;20523;-66
2021/07/04 09:39:26;;;;;;;22.10;6.75;;;;;;;22.19;58.41;100170.22;5038462;28;20036;-66
2021/07/04 09:42:05;;;;;;;18.30;6.03;;;;;;;22.18;58.08;100167.78;5061771;28;20037;-65
2021/07/04 09:44:31;;;;;;;19.50;5.03;;;;;;;22.21;58.11;100168.13;5041708;28;20146;-65
2021/07/04 09:47:20;;;;;;;20.23;6.25;;;;;;;22.18;58.43;100168.59;5061984;28;20149;-65
2021/07/04 09:49:47;;;;;;;18.25;5.82;;;;;;;22.23;58.77;100167.88;5044433;28;20086;-66
2021/07/04 09:52:21;;;;;;;14.23;3.90;;;;;;;22.20;58.04;100173.69;5060664;28;20044;-65
2021/07/04 09:55:19;;;;;;;10.77;3.90;;;;;;;22.17;57.88;100166.16;5047334;28;20064;-66
2021/07/04 09:57:56;;;;;;;9.18;3.85;;;;;;;22.16;57.56;100161.84;5057810;28;20055;-66
2021/07/04 10:00:23;;;;;;;13.05;4.55;;;;;;;22.16;57.97;100153.84;5064280;28;20112;-65
2021/07/04 10:03:11;;;;;;;8.55;4.22;;;;;;;22.11;57.50;100158.00;5060881;28;20048;-66
2021/07/04 10:05:57;;;;;;;10.57;3.80;;;;;;;22.09;57.67;100157.44;5042749;28;20029;-63
2021/07/04 10:08:27;;;;;;;12.73;4.28;;;;;;;22.12;57.51;100148.13;5049288;28;20130;-63
2021/07/04 10:10:56;;;;;;;8.52;4.18;;;;;;;22.11;57.74;100155.34;5050169;28;20079;-65
2021/07/04 10:13:22;;;;;;;12.98;4.47;;;;;;;22.10;57.71;100145.69;5049337;28;20029;-66
2021/07/04 10:15:48;;;;;;;11.95;4.18;;;;;;;22.11;57.73;100154.53;5049775;28;20064;-66
2021/07/04 10:18:14;;;;;;;10.52;3.80;;;;;;;22.12;57.58;100153.47;5031585;28;20712;-66
2021/07/04 10:20:42;;;;;;;12.32;4.53;;;;;;;22.13;57.42;100148.94;5050056;28;20036;-66
2021/07/04 10:23:13;;;;;;;10.30;4.35;;;;;;;22.10;57.83;100145.69;5017815;28;20046;-66
2021/07/04 10:25:39;;;;;;;7.72;3.45;;;;;;;22.13;58.05;100151.63;5057487;28;20031;-66
2021/07/04 10:28:06;;;;;;;10.65;4.10;;;;;;;22.13;57.76;100155.09;5054083;28;20131;-66
2021/07/04 10:30:32;;;;;;;8.30;3.40;;;;;;;22.15;58.45;100149.53;5030618;28;20028;-66
2021/07/04 10:33:15;;;;;;;8.57;3.80;;;;;;;22.10;58.41;100150.22;5042182;28;20040;-66
2021/07/04 10:35:49;;;;;;;7.38;3.67;;;;;;;22.14;58.07;100134.56;5036909;28;20025;-66
2021/07/04 10:38:15;;;;;;;9.32;3.67;;;;;;;22.16;58.01;100140.47;5048343;28;20475;-66
2021/07/04 10:40:41;;;;;;;8.82;3.90;;;;;;;22.15;57.90;100149.53;5035142;28;20045;-65
2021/07/04 10:43:07;;;;;;;7.57;3.38;;;;;;;22.15;57.62;100149.53;5047401;28;20037;-66
2021/07/04 10:45:38;;;;;;;10.13;4.60;;;;;;;22.10;58.05;100140.34;5048797;28;20140;-66
2021/07/04 10:48:27;;;;;;;10.85;4.55;;;;;;;22.04;58.09;100148.44;5048807;28;20133;-65
2021/07/04 10:51:07;;;;;;;9.40;4.07;;;;;;;22.02;58.36;100151.31;5048647;28;20044;-66
2021/07/04 10:53:52;;;;;;;10.73;4.60;;;;;;;22.01;58.30;100147.03;5048882;28;20037;-65
2021/07/04 10:56:37;;;;;;;11.45;4.22;;;;;;;22.00;58.09;100141.91;5028922;28;20060;-65
2021/07/04 10:59:10;;;;;;;9.65;4.25;;;;;;;22.04;58.34;100141.22;5042444;28;20052;-66
2021/07/04 11:01:56;;;;;;;12.05;4.68;;;;;;;22.00;58.55;100144.59;5048600;28;20024;-65
2021/07/04 11:04:27;;;;;;;11.00;4.82;;;;;;;22.01;58.51;100140.88;5047135;28;20045;-65
2021/07/04 11:06:59;;;;;;;8.70;4.43;;;;;;;22.01;58.21;100144.34;5037490;28;20041;-64
2021/07/04 11:09:44;;;;;;;11.70;4.60;;;;;;;22.01;58.60;100140.88;5062491;28;20092;-64
2021/07/04 11:12:30;;;;;;;10.60;4.32;;;;;;;21.97;58.63;100139.72;5048093;28;20064;-63
2021/07/04 11:15:10;;;;;;;8.18;4.32;;;;;;;21.96;58.70;100133.56;5049420;28;20292;-63
2021/07/04 11:20:44;;;;;;;11.30;4.68;;;;;;;21.98;58.60;100120.78;5036091;28;20043;-63
2021/07/04 11:23:19;;;;;;;13.05;4.85;;;;;;;21.96;58.75;100130.06;5031090;28;20169;-64
2021/07/04 11:25:47;;;;;;;9.95;5.07;;;;;;;21.96;58.71;100130.88;5049436;28;20025;-63
2021/07/04 11:28:27;;;;;;;9.48;4.80;;;;;;;21.94;59.12;100121.47;5034505;28;20143;-65